Norwell, Massachusetts
Current Conditions -  °F | °C
As of 10:15 AM on Monday 24 Nov 2014 (Local Time) from KPYM Reporting Station
Light Rain Light Rain  
Wind Chill: 61°   Ceiling: 600
Heat Index: 61°   Visibility: 3mi
Dew Point: 60°   Wind: 14mph
Humidity: 97%   Direction: 180°S
Pressure: 29.75"   Gusts: 37mph
Location:  42.16°N, 70.79°W
Report Text: KPYM 241515Z AUTO 18012G32KT 3SM -RA BR OVC006 16/16 A2975 RMK AO2 PK WND 16032/1511 P0004 T01610156
Loading
Personal Weather Stations






























Interactive Weather Map New forecast layout! Learn more

10-Day Weather Forecast

Advertisements
Track Severe Weather on mobile